Time;durP1;ratioP1;P1;durP2;ratioP2;P2;SDS_P1;SDS_P2;PMS_P1;PMS_P2;Temp;Humidity;BMP_temperature;BMP_pressure;BME280_temperature;BME280_humidity;BME280_pressure;Samples;Min_cycle;Max_cycle;Signal;HPM_P1;HPM_P2
2021/03/15 00:01:55;;;;;;;14.40;3.40;;;;;;;4.24;100.00;99961.59;5170564;28;20579;-80
2021/03/15 00:04:25;;;;;;;20.13;3.83;;;;;;;4.28;100.00;99952.91;5164943;28;20032;-80
2021/03/15 00:06:55;;;;;;;11.15;3.28;;;;;;;4.19;100.00;99953.97;5171813;28;20092;-80
2021/03/15 00:09:26;;;;;;;17.92;3.78;;;;;;;4.10;100.00;99953.28;5164250;28;20053;-80
2021/03/15 00:11:56;;;;;;;12.90;3.30;;;;;;;4.10;100.00;99959.28;5171187;28;20496;-81
2021/03/15 00:14:27;;;;;;;13.95;4.20;;;;;;;4.09;100.00;99959.34;5171582;28;20117;-80
2021/03/15 00:16:57;;;;;;;16.27;3.80;;;;;;;4.09;100.00;99957.59;5176074;28;20464;-80
2021/03/15 00:19:27;;;;;;;14.05;3.75;;;;;;;4.07;100.00;99959.34;5172144;28;20021;-80
2021/03/15 00:21:57;;;;;;;13.48;3.90;;;;;;;4.08;100.00;99955.03;5173853;28;20041;-80
2021/03/15 00:24:28;;;;;;;15.35;4.15;;;;;;;4.07;100.00;99951.59;5170901;28;20582;-80
2021/03/15 00:26:58;;;;;;;18.63;4.32;;;;;;;4.08;100.00;99948.13;5166386;28;20065;-80
2021/03/15 00:29:28;;;;;;;13.68;4.32;;;;;;;4.05;100.00;99945.63;5165908;28;20034;-80
2021/03/15 00:31:59;;;;;;;17.08;4.47;;;;;;;4.04;100.00;99938.75;5174120;28;20671;-80
2021/03/15 00:34:33;;;;;;;15.70;3.80;;;;;;;4.24;100.00;99928.84;5172894;28;20325;-80
2021/03/15 00:37:03;;;;;;;13.05;4.20;;;;;;;4.21;100.00;99931.50;5174997;28;20025;-81
2021/03/15 00:39:34;;;;;;;15.88;4.35;;;;;;;4.24;100.00;99940.91;5178936;28;20029;-81
2021/03/15 00:42:05;;;;;;;17.13;4.05;;;;;;;4.19;100.00;99932.41;5173885;28;20026;-81
2021/03/15 00:44:35;;;;;;;12.07;4.10;;;;;;;4.22;100.00;99932.34;5167100;28;20423;-81
2021/03/15 00:49:38;;;;;;;16.08;4.28;;;;;;;4.19;100.00;99922.06;5164743;28;20456;-80
2021/03/15 00:52:09;;;;;;;14.10;4.97;;;;;;;4.10;100.00;99928.28;5172972;28;20076;-80
2021/03/15 00:54:39;;;;;;;9.90;4.35;;;;;;;4.18;100.00;99926.41;5151364;28;20102;-80
2021/03/15 00:57:09;;;;;;;14.27;4.32;;;;;;;4.14;100.00;99931.66;5161664;28;20026;-80
2021/03/15 00:59:40;;;;;;;17.63;4.60;;;;;;;4.11;100.00;99929.13;5148061;28;20528;-80
2021/03/15 01:02:11;;;;;;;16.48;5.10;;;;;;;4.27;100.00;99930.53;5136918;28;20030;-80
2021/03/15 01:04:41;;;;;;;22.10;5.35;;;;;;;4.18;100.00;99926.41;5135696;28;20034;-80
2021/03/15 01:07:13;;;;;;;21.67;5.35;;;;;;;4.14;100.00;99924.72;5137311;28;20123;-80
2021/03/15 01:09:43;;;;;;;15.00;5.57;;;;;;;4.14;100.00;99924.72;5133964;28;20038;-80
2021/03/15 01:12:14;;;;;;;20.25;6.03;;;;;;;4.14;100.00;99919.56;5159184;28;20485;-80
2021/03/15 01:14:44;;;;;;;16.63;5.43;;;;;;;4.16;100.00;99912.63;5135983;28;20042;-80
2021/03/15 01:17:15;;;;;;;14.30;6.05;;;;;;;4.28;100.00;99917.56;5154780;28;20089;-80
2021/03/15 01:19:45;;;;;;;15.60;5.30;;;;;;;4.37;100.00;99909.63;5150995;28;20054;-80
2021/03/15 01:22:15;;;;;;;15.75;5.32;;;;;;;4.48;100.00;99910.22;5159768;28;20037;-80
2021/03/15 01:24:45;;;;;;;21.58;5.55;;;;;;;4.40;100.00;99900.91;5136921;28;20030;-80
2021/03/15 01:27:16;;;;;;;19.88;5.57;;;;;;;4.41;100.00;99908.66;5143640;28;20034;-80
2021/03/15 01:29:46;;;;;;;24.40;5.25;;;;;;;4.51;100.00;99902.41;5137184;28;20027;-80
2021/03/15 01:32:17;;;;;;;20.15;5.70;;;;;;;4.56;100.00;99887.63;5146472;28;20026;-80
2021/03/15 01:34:47;;;;;;;21.08;5.32;;;;;;;4.56;100.00;99894.53;5142150;28;20034;-80
2021/03/15 01:37:17;;;;;;;21.50;5.25;;;;;;;4.60;100.00;99891.00;5151654;28;20030;-80
2021/03/15 01:39:48;;;;;;;20.70;4.80;;;;;;;4.79;100.00;99887.09;5139706;28;20034;-80
2021/03/15 01:42:18;;;;;;;14.88;4.40;;;;;;;4.80;100.00;99875.88;5142746;28;20068;-81
2021/03/15 01:44:48;;;;;;;19.13;5.28;;;;;;;4.74;100.00;99879.44;5155177;28;20068;-80
2021/03/15 01:47:19;;;;;;;19.35;5.35;;;;;;;4.75;100.00;99880.28;5151275;28;20722;-80
2021/03/15 01:49:50;;;;;;;15.35;4.65;;;;;;;4.77;100.00;99874.19;5134126;28;20026;-80
2021/03/15 01:52:21;;;;;;;21.95;4.70;;;;;;;4.79;100.00;99869.00;5152227;28;20026;-80
2021/03/15 01:54:52;;;;;;;16.65;4.75;;;;;;;4.92;100.00;99871.25;5135889;28;20030;-80
2021/03/15 01:57:22;;;;;;;17.88;5.10;;;;;;;4.86;100.00;99862.75;5127306;28;20046;-80
2021/03/15 01:59:52;;;;;;;16.20;4.57;;;;;;;4.86;100.00;99855.88;5128806;28;20037;-80
2021/03/15 02:02:24;;;;;;;16.08;4.60;;;;;;;4.88;100.00;99858.41;5156767;28;20026;-80
2021/03/15 02:04:54;;;;;;;16.98;4.68;;;;;;;4.84;100.00;99854.19;5141095;28;20022;-81
2021/03/15 02:07:24;;;;;;;20.40;5.30;;;;;;;4.82;100.00;99848.22;5137354;28;20027;-80
2021/03/15 02:09:55;;;;;;;18.88;4.97;;;;;;;4.89;100.00;99842.84;5149390;28;20027;-80
2021/03/15 02:12:58;;;;;;;18.60;5.00;;;;;;;4.79;100.00;99846.53;5155023;28;20396;-80
2021/03/15 02:15:52;;;;;;;17.55;5.38;;;;;;;4.76;100.00;99843.16;5144983;28;20051;-80
2021/03/15 02:18:36;;;;;;;13.93;4.80;;;;;;;4.68;100.00;99843.38;5152368;28;20507;-80
2021/03/15 02:21:25;;;;;;;12.25;4.68;;;;;;;4.70;100.00;99841.59;5130875;28;20493;-80
2021/03/15 02:24:10;;;;;;;14.60;4.80;;;;;;;4.66;100.00;99845.13;5143413;28;20062;-80
2021/03/15 02:27:13;;;;;;;16.95;5.15;;;;;;;4.73;100.00;99838.06;5123296;28;20035;-80
2021/03/15 02:30:16;;;;;;;11.52;4.35;;;;;;;4.87;100.00;99830.81;5111046;28;20039;-80
2021/03/15 02:33:24;;;;;;;13.07;4.75;;;;;;;4.60;100.00;99849.63;5148626;28;20042;-80
2021/03/15 02:35:56;;;;;;;10.23;4.50;;;;;;;4.72;100.00;99846.72;5130127;28;20034;-80
2021/03/15 02:38:32;;;;;;;10.30;4.28;;;;;;;4.66;100.00;99846.88;5123386;28;20105;-80
2021/03/15 02:41:04;;;;;;;14.10;4.35;;;;;;;4.70;100.00;99844.19;5125463;28;20029;-80
2021/03/15 02:43:46;;;;;;;12.35;4.63;;;;;;;4.81;100.00;99849.94;5133381;28;20029;-80
2021/03/15 02:46:29;;;;;;;9.05;4.05;;;;;;;4.70;100.00;99845.91;5151721;28;20550;-80
2021/03/15 02:49:03;;;;;;;10.43;4.22;;;;;;;4.70;100.00;99854.53;5141650;28;20042;-80
2021/03/15 02:51:37;;;;;;;10.45;4.72;;;;;;;4.60;100.00;99847.84;5146497;28;20030;-80
2021/03/15 02:54:10;;;;;;;9.02;4.32;;;;;;;4.54;100.00;99839.38;5146679;28;20026;-81
2021/03/15 02:56:44;;;;;;;7.93;4.57;;;;;;;4.60;100.00;99841.84;5141075;28;20031;-80
2021/03/15 02:59:17;;;;;;;9.80;5.20;;;;;;;4.45;100.00;99835.28;5148391;28;20030;-80
2021/03/15 03:01:49;;;;;;;8.35;5.15;;;;;;;4.48;100.00;99827.44;5144843;28;20026;-80
2021/03/15 03:04:21;;;;;;;7.03;4.80;;;;;;;4.50;100.00;99833.41;5141244;28;20445;-80
2021/03/15 03:06:53;;;;;;;5.65;4.20;;;;;;;4.47;100.00;99820.56;5133158;28;20056;-80
2021/03/15 03:09:24;;;;;;;7.57;4.80;;;;;;;4.46;100.00;99821.44;5127033;28;20396;-80
2021/03/15 03:11:55;;;;;;;6.55;4.95;;;;;;;4.31;100.00;99828.72;5130010;28;20026;-80
2021/03/15 03:14:27;;;;;;;9.10;5.57;;;;;;;4.35;100.00;99827.75;5145026;28;20028;-80
2021/03/15 03:17:00;;;;;;;10.93;6.00;;;;;;;4.38;100.00;99833.72;5141358;28;20066;-80
2021/03/15 03:19:30;;;;;;;11.38;6.95;;;;;;;4.36;100.00;99827.75;5155599;28;20504;-80
2021/03/15 03:22:02;;;;;;;10.45;7.68;;;;;;;4.45;100.00;99822.34;5143439;28;20049;-80
2021/03/15 03:24:34;;;;;;;11.68;7.50;;;;;;;4.45;100.00;99822.34;5136933;28;20025;-80
2021/03/15 03:27:05;;;;;;;13.48;7.40;;;;;;;4.38;100.00;99817.34;5131354;28;20033;-80
2021/03/15 03:29:37;;;;;;;12.02;7.20;;;;;;;4.38;100.00;99825.97;5154254;28;20099;-80
2021/03/15 03:32:08;;;;;;;11.95;7.15;;;;;;;4.28;100.00;99824.47;5151433;28;20027;-80
2021/03/15 03:34:40;;;;;;;9.75;6.38;;;;;;;4.35;100.00;99820.00;5133749;28;20019;-80
2021/03/15 03:37:10;;;;;;;8.95;5.97;;;;;;;4.29;100.00;99826.16;5149775;28;20042;-80
2021/03/15 03:39:40;;;;;;;8.40;6.13;;;;;;;4.24;100.00;99820.25;5150696;28;20026;-80
2021/03/15 03:42:11;;;;;;;10.93;6.15;;;;;;;4.41;100.00;99818.13;5155132;28;20026;-80
2021/03/15 03:44:41;;;;;;;10.52;6.00;;;;;;;4.17;100.00;99816.09;5132606;28;20459;-80
2021/03/15 03:47:14;;;;;;;10.98;6.55;;;;;;;4.07;100.00;99822.34;5155708;28;20034;-81
2021/03/15 03:49:45;;;;;;;7.68;5.90;;;;;;;4.12;100.00;99827.44;5139766;28;20034;-81
2021/03/15 03:52:22;;;;;;;8.82;5.78;;;;;;;4.05;100.00;99824.13;5140016;28;20030;-81
2021/03/15 03:54:56;;;;;;;9.48;5.97;;;;;;;3.94;100.00;99818.31;5132805;28;20035;-80
2021/03/15 03:57:35;;;;;;;6.97;4.97;;;;;;;4.06;100.00;99819.78;5132254;28;20029;-81
2021/03/15 04:00:09;;;;;;;6.25;3.80;;;;;;;4.08;100.00;99811.13;5137798;28;20503;-81
2021/03/15 04:02:51;;;;;;;6.38;3.60;;;;;;;4.05;100.00;99810.34;5134640;28;20054;-80
2021/03/15 04:05:28;;;;;;;4.07;2.80;;;;;;;4.04;100.00;99813.81;5136417;28;20106;-80
2021/03/15 04:08:06;;;;;;;4.03;2.47;;;;;;;3.75;100.00;99824.75;5143973;28;20028;-80
2021/03/15 04:10:37;;;;;;;3.60;2.47;;;;;;;3.77;100.00;99817.81;5154231;28;20644;-80
2021/03/15 04:13:11;;;;;;;3.47;2.60;;;;;;;3.75;100.00;99821.34;5136857;28;20034;-81
2021/03/15 04:15:47;;;;;;;3.85;2.47;;;;;;;3.77;100.00;99820.41;5137038;28;20085;-80
2021/03/15 04:18:22;;;;;;;3.53;2.35;;;;;;;3.88;100.00;99828.78;5155661;28;20022;-80
2021/03/15 04:20:57;;;;;;;3.80;2.70;;;;;;;3.76;100.00;99821.28;5153041;28;20062;-80
2021/03/15 04:23:33;;;;;;;3.60;2.35;;;;;;;3.87;100.00;99819.34;5135909;28;20034;-80
2021/03/15 04:26:04;;;;;;;4.32;2.40;;;;;;;3.74;100.00;99820.47;5127688;28;20712;-81
2021/03/15 04:28:37;;;;;;;3.13;2.38;;;;;;;3.71;100.00;99815.38;5153521;28;20030;-81
2021/03/15 04:31:09;;;;;;;3.53;2.50;;;;;;;3.68;100.00;99824.91;5157194;28;20117;-81
2021/03/15 04:33:40;;;;;;;4.28;2.88;;;;;;;3.49;100.00;99815.81;5152940;28;20022;-81
2021/03/15 04:36:14;;;;;;;4.30;2.50;;;;;;;3.58;100.00;99817.38;5152784;28;20041;-80
2021/03/15 04:38:45;;;;;;;3.40;2.50;;;;;;;3.72;100.00;99816.22;5153363;28;20023;-81
2021/03/15 04:41:17;;;;;;;2.88;2.13;;;;;;;3.73;100.00;99816.19;5155288;28;20118;-81
2021/03/15 04:43:48;;;;;;;5.28;2.78;;;;;;;3.63;100.00;99814.66;5136169;28;20034;-81
2021/03/15 04:46:21;;;;;;;3.40;2.35;;;;;;;3.60;100.00;99827.66;5138928;28;20049;-81
2021/03/15 04:48:51;;;;;;;3.92;2.70;;;;;;;3.72;100.00;99826.53;5148169;28;20045;-81
2021/03/15 04:51:22;;;;;;;4.60;2.80;;;;;;;3.62;100.00;99825.88;5149276;28;20027;-81
2021/03/15 04:53:53;;;;;;;4.18;2.33;;;;;;;3.70;100.00;99824.00;5152175;28;20022;-81
2021/03/15 04:56:25;;;;;;;5.47;2.53;;;;;;;3.66;100.00;99827.53;5145908;28;20066;-81
2021/03/15 04:58:59;;;;;;;3.88;2.42;;;;;;;3.72;100.00;99827.41;5136170;28;20031;-80
2021/03/15 05:01:31;;;;;;;3.78;2.28;;;;;;;3.54;100.00;99815.75;5128491;28;20113;-81
2021/03/15 05:04:07;;;;;;;3.85;2.60;;;;;;;3.50;100.00;99819.28;5159804;28;20027;-81
2021/03/15 05:06:42;;;;;;;5.00;2.58;;;;;;;3.53;100.00;99819.22;5158353;28;20421;-81
2021/03/15 05:09:14;;;;;;;4.07;2.70;;;;;;;3.61;100.00;99818.19;5141928;28;20201;-80
2021/03/15 05:11:45;;;;;;;3.90;2.83;;;;;;;3.50;100.00;99814.09;5134105;28;20170;-80
2021/03/15 05:14:16;;;;;;;4.43;2.97;;;;;;;3.55;100.00;99812.28;5130714;28;20652;-81
2021/03/15 05:16:47;;;;;;;4.35;3.10;;;;;;;3.59;100.00;99809.63;5143807;28;20027;-81
2021/03/15 05:19:19;;;;;;;4.88;3.35;;;;;;;3.37;100.00;99797.16;5146909;28;20045;-80
2021/03/15 05:21:49;;;;;;;5.47;3.78;;;;;;;3.53;100.00;99807.13;5143491;28;20122;-80
2021/03/15 05:24:19;;;;;;;5.25;3.30;;;;;;;3.65;100.00;99796.56;5136472;28;20443;-80
2021/03/15 05:26:50;;;;;;;4.80;3.35;;;;;;;3.51;100.00;99795.16;5148511;28;20034;-80
2021/03/15 05:29:22;;;;;;;5.13;3.50;;;;;;;3.48;100.00;99806.38;5134881;28;20027;-81
2021/03/15 05:31:53;;;;;;;4.18;3.25;;;;;;;3.51;100.00;99815.81;5156888;28;20078;-81
2021/03/15 05:34:24;;;;;;;3.83;3.15;;;;;;;3.58;100.00;99807.03;5150584;28;20023;-80
2021/03/15 05:36:57;;;;;;;4.40;2.97;;;;;;;3.66;100.00;99806.88;5134940;28;20042;-80
2021/03/15 05:39:28;;;;;;;5.93;3.38;;;;;;;3.64;100.00;99812.94;5130984;28;20037;-80
2021/03/15 05:41:58;;;;;;;4.55;3.10;;;;;;;3.53;100.00;99803.72;5141655;28;20109;-80
2021/03/15 05:44:59;;;;;;;4.33;3.20;;;;;;;3.63;100.00;99806.91;5141986;28;20105;-80
2021/03/15 05:47:57;;;;;;;5.30;3.10;;;;;;;3.56;100.00;99808.81;5144677;28;20847;-80
2021/03/15 05:51:05;;;;;;;4.63;3.50;;;;;;;3.55;100.00;99807.13;5131321;28;20109;-80
2021/03/15 05:54:15;;;;;;;4.47;3.70;;;;;;;3.56;100.00;99808.81;5129962;28;20023;-80
2021/03/15 05:57:07;;;;;;;5.00;3.58;;;;;;;3.58;100.00;99807.03;5157870;28;20110;-80
2021/03/15 05:59:56;;;;;;;7.05;3.10;;;;;;;3.52;100.00;99812.34;5160789;28;20694;-80
2021/03/15 06:02:54;;;;;;;4.60;2.92;;;;;;;3.67;100.00;99806.00;5133329;28;20101;-80
2021/03/15 06:05:25;;;;;;;4.00;3.03;;;;;;;3.76;100.00;99808.38;5137806;28;20033;-81
2021/03/15 06:08:21;;;;;;;5.40;3.40;;;;;;;3.69;100.00;99804.22;5147127;28;20077;-80
2021/03/15 06:11:03;;;;;;;4.35;3.00;;;;;;;3.64;100.00;99811.19;5141465;28;20034;-81
2021/03/15 06:13:35;;;;;;;4.50;3.35;;;;;;;3.65;100.00;99805.16;5136928;28;20049;-81
2021/03/15 06:16:07;;;;;;;4.47;3.35;;;;;;;3.61;100.00;99805.25;5158544;28;20114;-81
2021/03/15 06:18:38;;;;;;;5.32;3.92;;;;;;;3.60;100.00;99806.16;5159052;28;20480;-81
2021/03/15 06:21:12;;;;;;;5.18;3.75;;;;;;;3.86;100.00;99804.72;5139534;28;20516;-81
2021/03/15 06:23:44;;;;;;;5.63;3.80;;;;;;;3.86;100.00;99815.06;5154405;28;20053;-81
2021/03/15 06:26:14;;;;;;;5.03;3.65;;;;;;;3.83;100.00;99809.97;5154520;28;20041;-81
2021/03/15 06:28:45;;;;;;;6.32;4.28;;;;;;;3.75;100.00;99811.84;5158361;28;20599;-81
2021/03/15 06:31:17;;;;;;;5.93;4.15;;;;;;;3.67;100.00;99808.56;5159590;28;20034;-81
2021/03/15 06:33:47;;;;;;;5.50;4.32;;;;;;;3.72;100.00;99809.31;5142559;28;20033;-81
2021/03/15 06:36:18;;;;;;;6.70;4.68;;;;;;;3.83;100.00;99806.50;5135545;28;20392;-81
2021/03/15 06:38:49;;;;;;;7.13;4.70;;;;;;;3.91;100.00;99807.19;5148939;28;20511;-81
2021/03/15 06:41:22;;;;;;;8.60;4.82;;;;;;;3.88;100.00;99817.59;5157368;28;20037;-81
2021/03/15 06:43:52;;;;;;;7.35;4.63;;;;;;;3.93;100.00;99816.63;5140290;28;20023;-81
2021/03/15 06:46:23;;;;;;;6.22;4.70;;;;;;;4.02;100.00;99813.84;5131994;28;20049;-83
2021/03/15 06:48:53;;;;;;;6.35;4.93;;;;;;;3.94;100.00;99814.91;5193405;23;20133;-92
2021/03/15 06:51:23;;;;;;;9.05;5.30;;;;;;;4.11;100.00;99818.81;5201679;28;20022;-92
2021/03/15 06:53:54;;;;;;;9.57;5.50;;;;;;;4.02;100.00;99811.28;5177514;28;20034;-89
2021/03/15 06:56:24;;;;;;;8.05;5.18;;;;;;;4.19;100.00;99814.34;5183439;28;20030;-90
2021/03/15 06:58:59;;;;;;;8.23;5.32;;;;;;;4.32;100.00;99805.41;5173936;28;20026;-90
2021/03/15 07:01:29;;;;;;;7.22;5.45;;;;;;;4.16;100.00;99813.53;5177182;28;20142;-90
2021/03/15 07:04:08;;;;;;;10.60;6.43;;;;;;;4.57;100.00;99814.31;5177639;28;20553;-89
2021/03/15 07:06:42;;;;;;;8.95;6.10;;;;;;;4.73;100.00;99818.22;5182577;28;20036;-88
2021/03/15 07:09:17;;;;;;;8.88;6.10;;;;;;;4.44;100.00;99819.81;5176800;28;20374;-90
2021/03/15 07:12:00;;;;;;;8.25;6.07;;;;;;;4.72;100.00;99824.28;5181591;28;20030;-88
2021/03/15 07:14:31;;;;;;;9.57;6.20;;;;;;;4.83;100.00;99829.19;5182275;28;20400;-89
2021/03/15 07:17:01;;;;;;;8.98;6.32;;;;;;;4.89;100.00;99819.56;5182712;28;20026;-91
2021/03/15 07:19:32;;;;;;;10.27;6.65;;;;;;;4.78;100.00;99826.72;5191292;28;20046;-89
2021/03/15 07:22:19;;;;;;;8.80;6.50;;;;;;;4.81;100.00;99826.63;5187121;28;20018;-91
2021/03/15 07:25:03;;;;;;;14.50;7.05;;;;;;;4.82;100.00;99832.69;5184967;28;20038;-89
2021/03/15 07:27:36;;;;;;;9.18;6.90;;;;;;;4.75;100.00;99831.97;5195664;28;20026;-89
2021/03/15 07:30:26;;;;;;;8.68;6.63;;;;;;;4.94;100.00;99833.22;5187699;28;20030;-88
2021/03/15 07:33:02;;;;;;;8.35;6.57;;;;;;;4.86;100.00;99839.47;5187578;28;20038;-87
2021/03/15 07:35:38;;;;;;;12.13;7.40;;;;;;;4.91;100.00;99838.47;5197760;28;20033;-90
2021/03/15 07:38:08;;;;;;;;;;;;;;;4.87;100.00;99849.81;5196377;28;20060;-90
2021/03/15 07:40:47;;;;;;;8.48;6.40;;;;;;;4.76;100.00;99849.19;5187511;28;19940;-90
2021/03/15 07:43:27;;;;;;;11.15;7.63;;;;;;;4.61;100.00;99854.72;5180599;28;20037;-90
2021/03/15 07:45:57;;;;;;;13.40;8.40;;;;;;;4.77;100.00;99855.25;5180163;28;20032;-88
2021/03/15 07:48:33;;;;;;;14.13;9.27;;;;;;;4.66;100.00;99846.88;5176166;28;20038;-91
2021/03/15 07:51:09;;;;;;;;;;;;;;;4.81;100.00;99847.34;5180425;28;20026;-90
2021/03/15 07:53:46;;;;;;;15.50;8.73;;;;;;;4.75;100.00;99850.09;5177270;28;19928;-90
2021/03/15 07:56:20;;;;;;;11.10;7.82;;;;;;;4.92;100.00;99852.25;5189180;28;20056;-90
2021/03/15 07:58:54;;;;;;;11.25;7.55;;;;;;;4.90;100.00;99851.44;5180770;28;20040;-90
2021/03/15 08:01:26;;;;;;;9.80;7.30;;;;;;;5.09;100.00;99850.97;5184964;28;20026;-90
2021/03/15 08:03:57;;;;;;;11.60;7.32;;;;;;;5.16;100.00;99844.72;5173779;28;20022;-90
2021/03/15 08:06:29;;;;;;;8.77;7.20;;;;;;;5.19;100.00;99846.41;5176710;28;20093;-91
2021/03/15 08:08:59;;;;;;;8.77;6.80;;;;;;;5.24;100.00;99855.75;5186070;28;20041;-90
2021/03/15 08:11:32;;;;;;;9.80;7.40;;;;;;;5.37;100.00;99851.97;5170147;28;20025;-90
2021/03/15 08:14:03;;;;;;;10.57;7.78;;;;;;;5.49;100.00;99855.06;5195561;28;20030;-90
2021/03/15 08:16:33;;;;;;;10.63;6.93;;;;;;;5.52;100.00;99852.41;5183881;28;20022;-91
2021/03/15 08:19:05;;;;;;;8.45;6.40;;;;;;;5.43;100.00;99856.97;5180865;28;20228;-92
2021/03/15 08:21:37;;;;;;;9.63;6.68;;;;;;;5.74;100.00;99866.47;5198600;28;20105;-89
2021/03/15 08:24:11;;;;;;;10.23;6.30;;;;;;;5.86;100.00;99860.13;5180207;28;20025;-91
2021/03/15 08:26:45;;;;;;;9.30;5.88;;;;;;;5.84;100.00;99857.59;5193289;28;20041;-90
2021/03/15 08:29:16;;;;;;;8.32;5.72;;;;;;;5.78;100.00;99862.06;5178241;28;20022;-91
2021/03/15 08:31:53;;;;;;;10.50;5.60;;;;;;;5.98;100.00;99864.97;5177752;28;20084;-90
2021/03/15 08:34:25;;;;;;;8.02;5.25;;;;;;;5.86;100.00;99860.13;5167335;28;20054;-91
2021/03/15 08:36:56;;;;;;;8.27;4.60;;;;;;;5.78;100.00;99864.66;5175484;28;20066;-90
2021/03/15 08:39:26;;;;;;;8.52;4.88;;;;;;;5.77;100.00;99860.34;5182313;28;20062;-91
2021/03/15 08:42:06;;;;;;;6.60;4.72;;;;;;;5.79;100.00;99858.59;5179898;28;20054;-91
2021/03/15 08:44:37;;;;;;;8.32;4.28;;;;;;;5.82;100.00;99863.69;5171853;28;20061;-90
2021/03/15 08:47:09;;;;;;;10.60;4.72;;;;;;;5.88;100.00;99860.94;5204013;28;20049;-90
2021/03/15 08:49:43;;;;;;;12.70;6.88;;;;;;;6.05;100.00;99848.34;5187168;28;20144;-90
2021/03/15 08:52:32;;;;;;;7.97;4.63;;;;;;;6.24;99.40;99846.91;5180484;28;20045;-88
2021/03/15 08:55:03;;;;;;;11.73;5.70;;;;;;;6.35;97.45;99842.22;5182069;28;20053;-91
2021/03/15 08:57:35;;;;;;;9.05;4.50;;;;;;;6.63;96.56;99843.94;5177517;28;20399;-90
2021/03/15 09:00:34;;;;;;;6.07;4.47;;;;;;;7.30;95.09;99844.28;5184143;28;20053;-90
2021/03/15 09:03:05;;;;;;;10.15;4.30;;;;;;;7.77;93.18;99843.47;5180675;28;20407;-90
2021/03/15 09:05:44;;;;;;;6.55;3.95;;;;;;;7.53;92.35;99846.91;5169379;28;20029;-92
2021/03/15 09:08:14;;;;;;;6.50;4.32;;;;;;;7.61;94.40;99841.47;5166158;28;20369;-86
2021/03/15 09:10:45;;;;;;;8.43;3.60;;;;;;;7.32;92.45;99839.03;5169168;28;20070;-90
2021/03/15 09:13:20;;;;;;;8.05;4.22;;;;;;;7.00;94.23;99834.06;5169500;28;20053;-88
2021/03/15 09:15:52;;;;;;;;;;;;;;;6.87;95.04;99843.16;5170748;28;20077;-90
2021/03/15 09:18:37;;;;;;;6.68;3.10;;;;;;;6.83;94.65;99838.97;5181992;28;19917;-89
2021/03/15 09:21:23;;;;;;;8.85;3.22;;;;;;;6.86;96.15;99844.06;5182822;28;20036;-90
2021/03/15 09:24:00;;;;;;;8.38;3.25;;;;;;;6.95;95.01;99837.72;5170404;28;20105;-88
2021/03/15 09:26:30;;;;;;;10.18;3.65;;;;;;;7.13;94.38;99832.75;5168770;28;20366;-90
2021/03/15 09:29:05;;;;;;;10.10;3.25;;;;;;;7.03;94.49;99835.69;5188215;28;20022;-90
2021/03/15 09:31:35;;;;;;;8.10;3.10;;;;;;;6.93;94.53;99837.75;5165947;28;20025;-89
2021/03/15 09:34:09;;;;;;;9.25;3.63;;;;;;;6.81;95.39;99834.72;5162767;28;20022;-89
2021/03/15 09:36:41;;;;;;;10.10;4.50;;;;;;;6.92;95.04;99837.81;5163966;28;20080;-89
2021/03/15 09:39:11;;;;;;;12.27;3.42;;;;;;;7.12;95.55;99831.03;5159427;28;20610;-90
2021/03/15 09:41:47;;;;;;;6.60;2.85;;;;;;;7.02;94.20;99828.81;5172132;28;20026;-89
2021/03/15 09:44:30;;;;;;;9.52;2.72;;;;;;;6.89;94.24;99823.19;5167511;28;20017;-88
2021/03/15 09:47:00;;;;;;;9.93;2.78;;;;;;;6.93;94.93;99829.13;5173411;28;20532;-89
2021/03/15 09:49:31;;;;;;;9.65;2.60;;;;;;;6.70;94.96;99827.28;5169637;28;20033;-90
2021/03/15 09:52:16;;;;;;;9.57;2.55;;;;;;;6.87;95.17;99834.50;5169410;28;20121;-90
2021/03/15 09:54:54;;;;;;;10.70;2.75;;;;;;;7.03;94.89;99825.31;5171899;28;20545;-90
2021/03/15 09:57:25;;;;;;;11.85;2.60;;;;;;;7.00;95.00;99825.41;5170265;28;20026;-89
2021/03/15 10:00:12;;;;;;;11.32;2.60;;;;;;;6.84;95.26;99819.91;5178416;28;20372;-91
2021/03/15 10:02:45;;;;;;;19.83;4.72;;;;;;;6.79;95.54;99826.13;5179223;28;20064;-89
2021/03/15 10:05:23;;;;;;;12.15;3.53;;;;;;;7.02;95.49;99818.41;5177669;28;20060;-89
2021/03/15 10:07:53;;;;;;;9.30;2.60;;;;;;;6.85;95.22;99828.50;5175191;28;20084;-89
2021/03/15 10:10:25;;;;;;;10.05;2.90;;;;;;;7.16;95.73;99818.81;5187415;28;20057;-88
2021/03/15 10:13:06;;;;;;;7.90;2.55;;;;;;;7.42;95.00;99815.28;5180641;28;20445;-87
2021/03/15 10:15:37;;;;;;;15.40;2.58;;;;;;;7.39;94.57;99812.75;5187171;28;20494;-89
2021/03/15 10:18:08;;;;;;;9.25;2.45;;;;;;;7.47;94.27;99812.50;5183825;28;20030;-88
2021/03/15 10:20:39;;;;;;;9.85;2.65;;;;;;;7.53;94.77;99804.50;5175020;28;20033;-91
2021/03/15 10:23:22;;;;;;;15.02;2.55;;;;;;;7.79;93.12;99804.38;5179794;28;20605;-90
2021/03/15 10:25:58;;;;;;;8.38;2.50;;;;;;;7.84;90.00;99800.72;5170199;28;20494;-91
2021/03/15 10:28:30;;;;;;;11.13;2.83;;;;;;;8.16;91.60;99805.56;5172614;28;20033;-89
2021/03/15 10:31:07;;;;;;;11.65;3.13;;;;;;;8.01;92.01;99795.72;5176798;28;20402;-92
2021/03/15 10:33:43;;;;;;;9.18;2.63;;;;;;;7.86;92.93;99806.72;5170934;28;20026;-90
2021/03/15 10:36:20;;;;;;;10.45;2.97;;;;;;;7.53;95.85;99813.13;5166249;28;20042;-90
2021/03/15 10:38:51;;;;;;;10.40;3.00;;;;;;;7.09;98.36;99810.38;5170167;28;20030;-91
2021/03/15 10:41:21;;;;;;;12.48;3.13;;;;;;;6.90;100.00;99813.66;5163313;28;20030;-90
2021/03/15 10:44:08;;;;;;;11.40;3.08;;;;;;;6.96;100.00;99810.84;5170572;28;20041;-90
2021/03/15 10:46:47;;;;;;;18.70;4.10;;;;;;;7.08;100.00;99810.44;5174499;28;20096;-87
2021/03/15 10:49:26;;;;;;;13.32;3.63;;;;;;;6.98;100.00;99816.84;5170538;28;20049;-87
2021/03/15 10:51:57;;;;;;;12.25;3.40;;;;;;;6.77;100.00;99807.16;5179975;28;20050;-89
2021/03/15 10:54:30;;;;;;;15.27;3.72;;;;;;;6.85;100.00;99802.56;5193609;28;20036;-90
2021/03/15 10:57:13;;;;;;;15.10;4.10;;;;;;;6.96;100.00;99803.88;5171701;28;20032;-91
2021/03/15 10:59:45;;;;;;;12.10;3.80;;;;;;;6.99;100.00;99802.94;5170239;28;20033;-88
2021/03/15 11:02:27;;;;;;;12.73;4.28;;;;;;;6.92;100.00;99804.06;5168338;28;20033;-91
2021/03/15 11:04:58;;;;;;;13.57;4.30;;;;;;;7.07;100.00;99811.34;5170846;28;20455;-89
2021/03/15 11:07:35;;;;;;;13.27;4.63;;;;;;;6.92;100.00;99791.06;5171158;28;20034;-90
2021/03/15 11:10:17;;;;;;;12.20;3.70;;;;;;;6.98;100.00;99809.91;5177181;28;20033;-89
2021/03/15 11:12:52;;;;;;;13.20;4.22;;;;;;;6.95;100.00;99811.75;5174257;28;20042;-87
2021/03/15 11:15:35;;;;;;;11.87;3.37;;;;;;;6.76;100.00;99805.47;5171081;28;20030;-89
2021/03/15 11:18:13;;;;;;;10.55;3.05;;;;;;;6.83;100.00;99797.44;5168096;28;20043;-90
2021/03/15 11:20:49;;;;;;;17.45;5.50;;;;;;;6.81;100.00;99800.97;5174976;28;20027;-90
2021/03/15 11:23:29;;;;;;;12.23;3.35;;;;;;;6.91;100.00;99794.56;5171432;28;20314;-87
2021/03/15 11:26:03;;;;;;;10.65;3.50;;;;;;;7.26;100.00;99797.66;5167662;28;20044;-89
2021/03/15 11:28:42;;;;;;;11.93;4.10;;;;;;;7.84;100.00;99797.28;5166110;28;20056;-90
2021/03/15 11:31:18;;;;;;;10.75;3.08;;;;;;;8.11;100.00;99789.28;5174112;28;20026;-91
2021/03/15 11:34:02;;;;;;;9.25;3.30;;;;;;;8.43;99.96;99780.25;5168034;28;20121;-90
2021/03/15 11:36:33;;;;;;;9.23;2.63;;;;;;;8.28;99.40;99791.25;5172198;28;20056;-90
2021/03/15 11:39:06;;;;;;;9.07;2.60;;;;;;;8.06;98.14;99779.97;5166050;28;20058;-90
2021/03/15 11:41:44;;;;;;;10.68;2.42;;;;;;;8.26;98.56;99785.28;5164933;28;20022;-91
2021/03/15 11:44:15;;;;;;;11.65;2.78;;;;;;;8.11;97.89;99786.69;5166325;28;20023;-91
2021/03/15 11:46:45;;;;;;;9.05;2.53;;;;;;;8.27;96.79;99789.56;5179081;28;20108;-90
2021/03/15 11:49:16;;;;;;;3.72;1.60;;;;;;;8.28;95.79;99789.53;5167614;28;20523;-90
2021/03/15 11:51:53;;;;;;;5.78;1.73;;;;;;;8.36;95.79;99781.41;5170734;28;20034;-90
2021/03/15 11:54:24;;;;;;;5.53;2.15;;;;;;;8.56;95.60;99782.31;5177834;28;20026;-89
2021/03/15 11:57:48;;;;;;;;;;;;;;;;;;;;;
2021/03/15 12:00:20;;;;;;;6.78;2.10;;;;;;;8.67;94.58;99777.53;5167562;28;20037;-91
2021/03/15 12:02:52;;;;;;;8.73;2.30;;;;;;;8.72;94.13;99770.34;5170123;28;20029;-91
2021/03/15 12:05:23;;;;;;;7.55;2.05;;;;;;;9.20;96.41;99763.09;5170257;28;20022;-90
2021/03/15 12:07:53;;;;;;;6.38;1.80;;;;;;;9.01;93.01;99759.59;5170080;28;20040;-91
2021/03/15 12:10:23;;;;;;;7.63;2.13;;;;;;;9.38;93.94;99765.78;5172033;28;20392;-90
2021/03/15 12:12:54;;;;;;;7.97;2.60;;;;;;;9.33;92.14;99748.63;5166376;28;20041;-92